createdAt,value
2023-01-03T00:01:47.635Z,5.45
2023-01-03T00:04:17.002Z,5.63
2023-01-03T00:06:47.720Z,5.46
2023-01-03T00:09:21.945Z,5.45
2023-01-03T00:12:09.928Z,5.21
2023-01-03T00:14:40.376Z,5.36
2023-01-03T00:17:10.934Z,5.38
2023-01-03T00:19:42.415Z,5.26
2023-01-03T00:22:13.341Z,5.10
2023-01-03T00:24:45.149Z,5.12
2023-01-03T00:27:14.640Z,5.08
2023-01-03T00:29:44.075Z,4.99
2023-01-03T00:32:13.025Z,4.76
2023-01-03T00:34:44.800Z,4.96
2023-01-03T00:37:14.260Z,5.10
2023-01-03T00:39:44.989Z,5.12
2023-01-03T00:42:14.324Z,5.15
2023-01-03T00:44:43.222Z,5.31
2023-01-03T00:47:12.094Z,5.30
2023-01-03T00:49:41.089Z,4.78
2023-01-03T00:52:09.953Z,5.11
2023-01-03T00:54:39.073Z,5.33
2023-01-03T00:57:09.275Z,5.07
2023-01-03T00:59:38.081Z,5.17
2023-01-03T01:02:08.203Z,5.13
2023-01-03T01:04:37.136Z,4.88
2023-01-03T01:07:06.001Z,4.57
2023-01-03T01:09:37.559Z,4.33
2023-01-03T01:12:08.010Z,4.49
2023-01-03T01:14:38.242Z,4.11
2023-01-03T01:17:09.044Z,4.34
2023-01-03T01:19:39.474Z,4.52
2023-01-03T01:22:09.143Z,4.67
2023-01-03T01:24:38.289Z,4.90
2023-01-03T01:27:07.348Z,4.73
2023-01-03T01:29:36.857Z,4.66
2023-01-03T01:32:07.365Z,4.51
2023-01-03T01:34:36.420Z,4.47
2023-01-03T01:37:05.584Z,4.44
2023-01-03T01:39:34.903Z,4.39
2023-01-03T01:42:28.719Z,4.40
2023-01-03T01:45:00.811Z,4.41
2023-01-03T01:47:39.842Z,4.23
2023-01-03T01:50:19.796Z,4.30
2023-01-03T01:52:54.959Z,4.24
2023-01-03T01:55:27.884Z,4.21
2023-01-03T01:57:56.774Z,4.22
2023-01-03T02:00:25.603Z,4.18
2023-01-03T02:02:56.995Z,4.14
2023-01-03T02:05:27.335Z,4.02
2023-01-03T02:07:56.871Z,4.05
2023-01-03T02:10:35.691Z,4.31
2023-01-03T02:13:11.040Z,4.41
2023-01-03T02:15:51.088Z,4.42
2023-01-03T02:18:36.885Z,4.39
2023-01-03T02:21:46.902Z,4.22
2023-01-03T02:24:50.129Z,4.01
2023-01-03T02:27:43.384Z,4.03
2023-01-03T02:30:40.920Z,4.12
2023-01-03T02:33:19.768Z,4.31
2023-01-03T02:36:00.181Z,4.26
2023-01-03T02:38:41.834Z,4.41
2023-01-03T02:41:21.133Z,4.34
2023-01-03T02:43:55.786Z,4.12
2023-01-03T02:46:31.445Z,3.86
2023-01-03T02:49:07.424Z,4.09
2023-01-03T02:51:39.663Z,3.85
2023-01-03T02:54:14.041Z,3.55
2023-01-03T02:56:48.824Z,3.71
2023-01-03T02:59:23.142Z,3.60
2023-01-03T03:01:54.406Z,3.47
2023-01-03T03:04:25.117Z,3.32
2023-01-03T03:07:02.196Z,3.46
2023-01-03T03:09:31.348Z,3.45
2023-01-03T03:12:20.667Z,3.39
2023-01-03T03:14:52.570Z,3.14
2023-01-03T03:17:30.144Z,3.29
2023-01-03T03:20:17.022Z,3.27
2023-01-03T03:23:06.198Z,3.46
2023-01-03T03:25:41.252Z,2.87
2023-01-03T03:28:31.905Z,3.17
2023-01-03T03:31:05.198Z,3.30
2023-01-03T03:33:39.224Z,3.26
2023-01-03T03:36:13.874Z,3.52
2023-01-03T03:38:45.035Z,3.43
2023-01-03T03:41:39.205Z,3.65
2023-01-03T03:44:35.750Z,3.70
2023-01-03T03:47:10.188Z,3.45
2023-01-03T03:49:45.436Z,3.35
2023-01-03T03:52:18.246Z,3.52
2023-01-03T03:54:52.091Z,3.23
2023-01-03T03:57:27.254Z,3.40
2023-01-03T03:59:59.058Z,3.40
2023-01-03T04:02:30.537Z,3.23
2023-01-03T04:05:06.014Z,3.25
2023-01-03T04:07:35.071Z,3.30
2023-01-03T04:10:04.433Z,3.29
2023-01-03T04:12:33.309Z,3.34
2023-01-03T04:15:03.962Z,3.35
2023-01-03T04:17:32.819Z,3.30
2023-01-03T04:20:03.212Z,3.23
2023-01-03T04:22:32.219Z,3.32
2023-01-03T04:25:01.112Z,3.58
2023-01-03T04:27:31.093Z,3.53
2023-01-03T04:29:59.930Z,3.45
2023-01-03T04:32:28.855Z,3.40
2023-01-03T04:34:57.733Z,3.46
2023-01-03T04:37:28.805Z,3.29
2023-01-03T04:39:57.749Z,3.26
2023-01-03T04:42:44.086Z,3.11
2023-01-03T04:45:13.546Z,2.98
2023-01-03T04:47:42.415Z,3.05
2023-01-03T04:50:11.466Z,3.06
2023-01-03T04:52:41.814Z,2.80
2023-01-03T04:55:11.155Z,3.12
2023-01-03T04:57:40.080Z,2.71
2023-01-03T05:00:10.364Z,2.91
2023-01-03T05:02:39.355Z,3.07
2023-01-03T05:05:09.273Z,2.79
2023-01-03T05:07:38.792Z,2.69
2023-01-03T05:10:09.815Z,2.68
2023-01-03T05:12:38.691Z,2.73
2023-01-03T05:15:08.897Z,2.84
2023-01-03T05:17:37.799Z,2.96
2023-01-03T05:20:21.678Z,3.05
2023-01-03T05:23:07.767Z,3.32
2023-01-03T05:25:52.837Z,3.64
2023-01-03T05:28:24.351Z,3.48
2023-01-03T05:30:53.217Z,3.34
2023-01-03T05:33:22.125Z,3.21
2023-01-03T05:35:51.022Z,3.24
2023-01-03T05:38:20.249Z,3.29
2023-01-03T05:40:50.521Z,2.85
2023-01-03T05:43:19.436Z,2.92
2023-01-03T05:45:50.627Z,3.03
2023-01-03T05:48:20.193Z,2.88
2023-01-03T05:50:50.013Z,2.59
2023-01-03T05:53:19.947Z,2.63
2023-01-03T05:55:50.356Z,2.73
2023-01-03T05:58:19.141Z,3.01
2023-01-03T06:00:48.032Z,3.06
2023-01-03T06:03:16.884Z,3.09
2023-01-03T06:05:50.145Z,3.06
2023-01-03T06:08:19.565Z,2.74
2023-01-03T06:10:48.490Z,2.85
2023-01-03T06:13:19.089Z,3.04
2023-01-03T06:16:07.971Z,3.13
2023-01-03T06:18:36.427Z,3.14
2023-01-03T06:21:05.966Z,3.25
2023-01-03T06:23:34.864Z,2.99
2023-01-03T06:26:04.832Z,3.33
2023-01-03T06:28:35.191Z,3.61
2023-01-03T06:31:05.943Z,3.70
2023-01-03T06:33:34.895Z,3.48
2023-01-03T06:36:04.774Z,3.84
2023-01-03T06:38:33.829Z,4.33
2023-01-03T06:41:03.345Z,4.40
2023-01-03T06:43:34.054Z,4.25
2023-01-03T06:46:20.695Z,4.50
2023-01-03T06:49:09.464Z,4.31
2023-01-03T06:51:55.744Z,4.71
2023-01-03T06:54:27.082Z,5.15
2023-01-03T06:56:56.346Z,5.48
2023-01-03T06:59:27.359Z,5.47
2023-01-03T07:01:56.840Z,5.84
2023-01-03T07:04:26.754Z,5.66
2023-01-03T07:06:55.792Z,5.69
2023-01-03T07:09:25.369Z,6.06
2023-01-03T07:11:56.519Z,6.29
2023-01-03T07:14:28.163Z,6.05
2023-01-03T07:16:57.114Z,5.87
2023-01-03T07:19:25.915Z,5.72
2023-01-03T07:21:54.786Z,5.79
2023-01-03T07:24:23.660Z,6.06
2023-01-03T07:26:52.499Z,6.80
2023-01-03T07:29:21.438Z,6.78
2023-01-03T07:31:51.795Z,7.31
2023-01-03T07:34:21.089Z,7.90
2023-01-03T07:36:49.956Z,8.13
2023-01-03T07:39:19.045Z,7.76
2023-01-03T07:42:05.181Z,8.38
2023-01-03T07:44:34.000Z,8.61
2023-01-03T07:47:04.239Z,8.75
2023-01-03T07:49:33.632Z,9.04
2023-01-03T07:52:03.293Z,9.04
2023-01-03T07:54:32.161Z,8.95
2023-01-03T07:57:02.047Z,9.56
2023-01-03T07:59:30.903Z,10.25
2023-01-03T08:01:59.878Z,10.73
2023-01-03T08:04:31.133Z,11.19
2023-01-03T08:07:00.032Z,11.42
2023-01-03T08:09:47.154Z,11.81
2023-01-03T08:12:33.215Z,11.45
2023-01-03T08:15:02.549Z,12.06
2023-01-03T08:17:31.407Z,12.36
2023-01-03T08:20:02.143Z,10.52
2023-01-03T08:22:30.977Z,11.68
2023-01-03T08:24:59.830Z,11.20
2023-01-03T08:27:28.643Z,12.19
2023-01-03T08:29:57.487Z,12.21
2023-01-03T08:32:26.389Z,11.85
2023-01-03T08:34:55.308Z,12.85
2023-01-03T08:37:25.571Z,13.13
2023-01-03T08:39:58.184Z,13.75
2023-01-03T08:42:27.857Z,14.35
2023-01-03T08:45:02.118Z,14.49
2023-01-03T08:47:32.566Z,15.12
2023-01-03T08:50:02.089Z,14.67
2023-01-03T08:52:35.264Z,14.17
2023-01-03T08:55:05.309Z,14.13
2023-01-03T08:57:34.118Z,14.00
2023-01-03T09:00:05.778Z,14.42
2023-01-03T09:02:35.819Z,14.80
2023-01-03T09:05:05.036Z,15.37
2023-01-03T09:07:35.399Z,15.37
2023-01-03T09:10:04.289Z,15.68
2023-01-03T09:12:33.138Z,15.75
2023-01-03T09:15:02.046Z,16.34
2023-01-03T09:17:31.201Z,15.11
2023-01-03T09:20:00.112Z,15.37
2023-01-03T09:22:29.664Z,15.71
2023-01-03T09:24:59.925Z,16.04
2023-01-03T09:27:29.537Z,16.64
2023-01-03T09:29:58.404Z,16.15
2023-01-03T09:50:34.659Z,18.42
2023-01-03T09:53:26.542Z,18.54
2023-01-03T09:56:15.403Z,18.32
2023-01-03T09:59:09.995Z,18.95
2023-01-03T10:02:10.025Z,19.72
2023-01-03T10:05:07.095Z,18.49
2023-01-03T10:07:58.091Z,17.72
2023-01-03T10:10:36.626Z,18.51
2023-01-03T10:13:20.412Z,18.26
2023-01-03T10:16:01.259Z,18.20
2023-01-03T10:18:54.260Z,18.32
2023-01-03T10:21:29.656Z,17.54
2023-01-03T10:24:00.635Z,16.57
2023-01-03T10:26:34.427Z,16.61
2023-01-03T10:29:04.129Z,16.82
2023-01-03T10:31:44.347Z,16.92
2023-01-03T10:34:13.443Z,17.98
2023-01-03T10:36:42.296Z,18.63
2023-01-03T10:39:12.920Z,19.37
2023-01-03T10:41:45.611Z,18.73
2023-01-03T10:44:25.717Z,17.80
2023-01-03T10:46:56.136Z,18.47
2023-01-03T10:49:29.325Z,17.55
2023-01-03T10:52:03.939Z,19.33
2023-01-03T10:54:49.489Z,18.87
2023-01-03T10:57:44.290Z,20.29
2023-01-03T11:00:32.437Z,20.80
2023-01-03T11:03:14.445Z,20.98
2023-01-03T11:05:45.804Z,21.55
2023-01-03T11:08:21.173Z,21.07
2023-01-03T11:10:54.369Z,20.65
2023-01-03T11:13:28.628Z,19.13
2023-01-03T11:15:59.169Z,18.83
2023-01-03T11:18:29.763Z,20.16
2023-01-03T11:21:09.718Z,19.32
2023-01-03T11:23:58.799Z,19.67
2023-01-03T11:26:42.627Z,19.97
2023-01-03T11:29:35.429Z,20.83
2023-01-03T11:32:17.399Z,20.86
2023-01-03T11:35:25.400Z,20.96
2023-01-03T11:38:03.701Z,19.74
2023-01-03T11:40:53.207Z,19.33
2023-01-03T11:43:40.519Z,18.63
2023-01-03T11:46:24.187Z,18.99
2023-01-03T11:49:07.280Z,19.65
2023-01-03T11:51:42.437Z,20.11
2023-01-03T11:54:27.476Z,20.48
2023-01-03T11:56:59.431Z,20.97
2023-01-03T12:00:01.368Z,20.66
2023-01-03T12:03:05.398Z,20.84
2023-01-03T12:05:47.349Z,19.82
2023-01-03T12:08:45.886Z,21.01
2023-01-03T12:11:53.026Z,21.58
2023-01-03T12:14:25.494Z,21.28
2023-01-03T12:16:58.930Z,21.25
2023-01-03T12:19:39.239Z,21.17
2023-01-03T12:22:17.767Z,20.95
2023-01-03T12:24:54.241Z,21.35
2023-01-03T12:27:33.813Z,19.95
2023-01-03T12:30:07.301Z,19.66
2023-01-03T12:32:46.434Z,20.00
2023-01-03T12:35:31.734Z,20.58
2023-01-03T12:38:00.609Z,21.56
2023-01-03T12:40:39.686Z,21.80
2023-01-03T12:43:14.223Z,22.01
2023-01-03T12:45:48.983Z,21.63
2023-01-03T12:48:36.566Z,20.66
2023-01-03T12:51:05.697Z,21.39
2023-01-03T12:53:39.983Z,21.67
2023-01-03T12:56:29.753Z,20.45
2023-01-03T12:59:10.687Z,20.60
2023-01-03T13:01:44.480Z,21.59
2023-01-03T13:04:23.681Z,21.46
2023-01-03T13:07:04.811Z,19.66
2023-01-03T13:09:37.605Z,19.31
2023-01-03T13:12:09.877Z,19.77
2023-01-03T13:14:54.094Z,19.91
2023-01-03T13:17:25.472Z,18.64
2023-01-03T13:20:00.636Z,18.12
2023-01-03T13:22:52.050Z,18.66
2023-01-03T13:25:40.058Z,19.37
2023-01-03T13:28:34.163Z,19.34
2023-01-03T13:31:39.552Z,19.43
2023-01-03T13:34:31.136Z,18.41
2023-01-03T13:37:21.270Z,18.84
2023-01-03T13:40:19.843Z,18.42
2023-01-03T13:42:48.765Z,18.70
2023-01-03T13:45:57.640Z,18.63
2023-01-03T13:48:37.951Z,18.73
2023-01-03T13:51:29.404Z,18.67
2023-01-03T13:54:05.627Z,18.13
2023-01-03T13:56:58.854Z,17.94
2023-01-03T13:59:34.375Z,17.61
2023-01-03T14:02:35.235Z,18.36
2023-01-03T14:05:24.132Z,18.23
2023-01-03T14:08:13.975Z,17.52
2023-01-03T14:11:00.731Z,18.10
2023-01-03T14:13:39.224Z,18.49
2023-01-03T14:16:20.492Z,17.55
2023-01-03T14:18:57.242Z,17.95
2023-01-03T14:21:30.049Z,17.41
2023-01-03T14:24:01.888Z,17.64
2023-01-03T14:26:33.853Z,18.27
2023-01-03T14:29:03.253Z,18.13
2023-01-03T14:31:32.130Z,18.43
2023-01-03T14:34:03.075Z,18.42
2023-01-03T14:36:31.941Z,18.49
2023-01-03T14:39:02.401Z,18.51
2023-01-03T14:41:34.608Z,18.28
2023-01-03T14:44:07.209Z,18.16
2023-01-03T14:46:37.085Z,17.59
2023-01-03T14:49:21.518Z,17.66
2023-01-03T14:51:50.769Z,17.72
2023-01-03T14:54:21.455Z,17.52
2023-01-03T14:56:51.762Z,17.27
2023-01-03T14:59:24.049Z,17.07
2023-01-03T15:01:54.329Z,17.02
2023-01-03T15:04:25.511Z,17.00
2023-01-03T15:07:07.947Z,16.73
2023-01-03T15:09:41.928Z,16.44
2023-01-03T15:12:16.500Z,16.82
2023-01-03T15:14:45.463Z,17.26
2023-01-03T15:17:16.812Z,17.54
2023-01-03T15:19:51.608Z,17.63
2023-01-03T15:22:23.358Z,17.61
2023-01-03T15:25:03.203Z,16.63
2023-01-03T15:27:44.059Z,16.09
2023-01-03T15:30:25.114Z,15.86
2023-01-03T15:32:59.620Z,15.19
2023-01-03T15:35:38.525Z,15.14
2023-01-03T15:38:20.309Z,15.58
2023-01-03T15:40:51.786Z,15.36
2023-01-03T15:43:27.112Z,14.95
2023-01-03T15:46:04.177Z,14.70
2023-01-03T15:48:36.248Z,14.17
2023-01-03T15:51:06.622Z,14.03
2023-01-03T15:53:43.812Z,13.74
2023-01-03T15:56:19.249Z,13.63
2023-01-03T15:58:53.086Z,14.21
2023-01-03T16:01:22.935Z,14.03
2023-01-03T16:03:53.227Z,13.71
2023-01-03T16:06:22.270Z,13.95
2023-01-03T16:08:51.164Z,13.77
2023-01-03T16:11:28.014Z,13.98
2023-01-03T16:14:05.870Z,14.53
2023-01-03T16:16:38.647Z,14.41
2023-01-03T16:19:08.634Z,14.25
2023-01-03T16:21:37.617Z,13.78
2023-01-03T16:24:06.824Z,13.65
2023-01-03T16:26:35.676Z,13.27
2023-01-03T16:29:06.174Z,13.07
2023-01-03T16:31:37.000Z,12.85
2023-01-03T16:34:07.444Z,13.08
2023-01-03T16:36:39.386Z,12.76
2023-01-03T16:39:17.134Z,12.91
2023-01-03T16:42:07.336Z,12.55
2023-01-03T16:44:39.929Z,12.33
2023-01-03T16:47:14.224Z,12.48
2023-01-03T16:49:44.700Z,11.90
2023-01-03T16:52:16.426Z,12.04
2023-01-03T16:54:45.743Z,12.03
2023-01-03T16:57:18.168Z,11.83
2023-01-03T16:59:50.070Z,11.73
2023-01-03T17:02:19.112Z,11.81
2023-01-03T17:04:48.268Z,11.22
2023-01-03T17:07:21.260Z,11.36
2023-01-03T17:09:51.482Z,11.71
2023-01-03T17:12:23.823Z,11.67
2023-01-03T17:14:54.242Z,11.53
2023-01-03T17:17:24.593Z,11.30
2023-01-03T17:20:03.859Z,11.39
2023-01-03T17:22:34.839Z,11.29
2023-01-03T17:25:03.950Z,11.40
2023-01-03T17:27:33.695Z,11.32
2023-01-03T17:30:07.927Z,11.10
2023-01-03T17:32:36.928Z,11.01
2023-01-03T17:35:06.495Z,10.71
2023-01-03T17:37:51.882Z,10.82
2023-01-03T17:40:33.300Z,10.73
2023-01-03T17:43:03.676Z,10.89
2023-01-03T17:45:51.370Z,10.76
2023-01-03T17:48:49.313Z,10.92
2023-01-03T17:51:18.325Z,10.71
2023-01-03T17:53:47.721Z,10.41
2023-01-03T17:56:17.824Z,10.66
2023-01-03T17:58:55.393Z,10.51
2023-01-03T18:01:26.510Z,10.27
2023-01-03T18:03:55.463Z,10.24
2023-01-03T18:06:26.936Z,10.16
2023-01-03T18:08:57.058Z,9.90
2023-01-03T18:11:28.183Z,9.49
2023-01-03T18:13:57.128Z,9.23
2023-01-03T18:16:27.498Z,9.71
2023-01-03T18:18:56.409Z,9.81
2023-01-03T18:21:28.009Z,9.86
2023-01-03T18:24:00.127Z,9.81
2023-01-03T18:26:34.291Z,9.76
2023-01-03T18:29:05.170Z,9.71
2023-01-03T18:31:35.449Z,9.80
2023-01-03T18:34:05.146Z,9.67
2023-01-03T18:36:39.884Z,9.69
2023-01-03T18:39:14.620Z,9.80
2023-01-03T18:41:44.218Z,9.76
2023-01-03T18:44:21.477Z,9.68
2023-01-03T18:46:52.795Z,9.57
2023-01-03T18:49:21.836Z,9.28
2023-01-03T18:51:53.987Z,9.21
2023-01-03T18:54:22.884Z,9.47
2023-01-03T18:56:51.838Z,9.08
2023-01-03T18:59:22.883Z,8.99
2023-01-03T19:01:53.753Z,8.83
2023-01-03T19:04:22.943Z,9.05
2023-01-03T19:06:52.499Z,9.10
2023-01-03T19:09:23.853Z,8.67
2023-01-03T19:11:54.234Z,8.69
2023-01-03T19:14:23.162Z,8.71
2023-01-03T19:16:53.437Z,8.91
2023-01-03T19:19:22.258Z,8.61
2023-01-03T19:21:51.178Z,8.41
2023-01-03T19:24:24.658Z,8.31
2023-01-03T19:26:57.416Z,8.38
2023-01-03T19:29:36.735Z,8.30
2023-01-03T19:32:13.793Z,8.43
2023-01-03T19:34:42.661Z,8.34
2023-01-03T19:37:11.568Z,8.22
2023-01-03T19:39:40.922Z,8.17
2023-01-03T19:42:32.786Z,8.48
2023-01-03T19:45:03.408Z,8.57
2023-01-03T19:47:33.910Z,8.59
2023-01-03T19:50:16.054Z,8.55
2023-01-03T19:52:44.999Z,8.71
2023-01-03T19:55:14.497Z,8.35
2023-01-03T19:57:45.366Z,8.36
2023-01-03T20:00:21.375Z,8.24
2023-01-03T20:02:53.341Z,8.31
2023-01-03T20:05:24.867Z,8.17
2023-01-03T20:07:54.309Z,7.89
2023-01-03T20:10:25.307Z,7.81
2023-01-03T20:12:57.684Z,7.56
2023-01-03T20:15:28.868Z,7.63
2023-01-03T20:17:59.583Z,7.58
2023-01-03T20:20:31.875Z,7.67
2023-01-03T20:23:05.618Z,8.13
2023-01-03T20:25:37.528Z,8.32
2023-01-03T20:28:07.204Z,7.79
2023-01-03T20:30:36.512Z,7.59
2023-01-03T20:33:06.758Z,7.58
2023-01-03T20:38:27.366Z,7.17
2023-01-03T20:40:57.665Z,6.89
2023-01-03T20:43:26.772Z,7.10
2023-01-03T20:45:57.381Z,7.38
2023-01-03T20:48:27.637Z,7.36
2023-01-03T20:50:56.440Z,7.31
2023-01-03T20:53:26.958Z,7.21
2023-01-03T20:55:55.982Z,7.24
2023-01-03T20:58:26.514Z,7.23
2023-01-03T21:01:04.223Z,7.45
2023-01-03T21:03:36.841Z,7.32
2023-01-03T21:06:17.381Z,7.22
2023-01-03T21:08:54.794Z,6.82
2023-01-03T21:11:25.279Z,7.16
2023-01-03T21:13:54.520Z,6.98
2023-01-03T21:16:32.814Z,7.22
2023-01-03T21:19:14.218Z,7.12
2023-01-03T21:21:45.056Z,7.00
2023-01-03T21:24:15.706Z,6.94
2023-01-03T21:26:45.004Z,6.82
2023-01-03T21:29:13.883Z,6.77
2023-01-03T21:31:44.176Z,6.87
2023-01-03T21:34:19.006Z,6.91
2023-01-03T21:36:48.257Z,6.72
2023-01-03T21:39:17.530Z,6.78
2023-01-03T21:42:03.920Z,6.77
2023-01-03T21:44:32.741Z,6.81
2023-01-03T21:47:02.043Z,6.75
2023-01-03T21:49:32.335Z,6.71
2023-01-03T21:52:02.071Z,6.72
2023-01-03T21:54:30.968Z,6.43
2023-01-03T21:56:59.854Z,6.34
2023-01-03T21:59:31.716Z,6.31
2023-01-03T22:02:18.386Z,5.65
2023-01-03T22:04:48.659Z,5.75
2023-01-03T22:07:17.619Z,5.72
2023-01-03T22:10:03.844Z,5.73
2023-01-03T22:12:33.972Z,5.94
2023-01-03T22:15:04.413Z,5.99
2023-01-03T22:17:36.647Z,6.02
2023-01-03T22:20:11.737Z,6.12
2023-01-03T22:22:42.065Z,6.06
2023-01-03T22:25:13.941Z,6.08
2023-01-03T22:27:43.437Z,6.18
2023-01-03T22:30:14.685Z,6.27
2023-01-03T22:32:44.379Z,6.44
2023-01-03T22:35:16.741Z,6.50
2023-01-03T22:37:45.937Z,6.62
2023-01-03T22:40:17.086Z,6.40
2023-01-03T22:42:45.901Z,6.31
2023-01-03T22:45:15.616Z,6.18
2023-01-03T22:47:44.480Z,6.32
2023-01-03T22:50:14.860Z,6.39
2023-01-03T22:52:43.760Z,6.30
2023-01-03T22:55:12.577Z,6.38
2023-01-03T22:57:41.406Z,6.39
2023-01-03T23:00:12.295Z,6.39
2023-01-03T23:02:42.277Z,6.21
2023-01-03T23:05:11.420Z,6.25
2023-01-03T23:07:44.847Z,6.30
2023-01-03T23:10:13.751Z,6.22
2023-01-03T23:12:59.491Z,5.95
2023-01-03T23:15:30.497Z,6.06
2023-01-03T23:18:00.589Z,5.82
2023-01-03T23:20:31.631Z,5.67
2023-01-03T23:23:04.331Z,5.57
2023-01-03T23:25:36.686Z,5.56
2023-01-03T23:28:05.868Z,5.40
2023-01-03T23:30:35.810Z,5.39
2023-01-03T23:33:04.953Z,5.46
2023-01-03T23:35:34.387Z,5.48
2023-01-03T23:38:04.609Z,5.62
2023-01-03T23:40:33.566Z,5.83
2023-01-03T23:43:02.412Z,5.93
2023-01-03T23:45:31.275Z,5.68
2023-01-03T23:48:00.132Z,5.47
2023-01-03T23:50:30.194Z,5.34
2023-01-03T23:52:59.264Z,5.57
2023-01-03T23:55:29.502Z,5.53
2023-01-03T23:57:58.440Z,5.25
